TAP14 GMMN-LPPT
Flight info
| Callsign | TAP14 |
|---|---|
| Flight time | 0h 58m |
| Altitude | 36000 |
| Route | LAKAM UR722 AMSEL DCT VFA DCT VATZI |
| Aircraft | A321/M-SDE3FGHIRWY/LB1 |
Departure
| Time | 2026-05-07 16:15 |
|---|---|
| Airport | Mohammed V International Airport (GMMN) |
Arrival
| Time | 2026-05-07 17:14 |
|---|---|
| Airport | Lisbon Humberto Delgado Airport (LPPT) |
| Time | Latitude | Longitude | Altitude | Speed | Heading |
|---|---|---|---|---|---|
| 2026-05-07 15:11 | 33.37049 | -7.58172 | 647 ft | 0 kts | 75° |
| 2026-05-07 16:03 | 33.37048 | -7.58174 | 647 ft | 1 kts | 75° |
| 2026-05-07 16:03 | 33.37044 | -7.58191 | 647 ft | 2 kts | 75° |
| 2026-05-07 16:03 | 33.37040 | -7.58209 | 647 ft | 2 kts | 79° |
| 2026-05-07 16:03 | 33.37041 | -7.58226 | 646 ft | 2 kts | 107° |
| 2026-05-07 16:04 | 33.37048 | -7.58242 | 646 ft | 2 kts | 129° |
| 2026-05-07 16:04 | 33.37059 | -7.58254 | 646 ft | 2 kts | 150° |
| 2026-05-07 16:04 | 33.37067 | -7.58259 | 646 ft | 1 kts | 163° |
| 2026-05-07 16:04 | 33.37057 | -7.58255 | 646 ft | 4 kts | 163° |
| 2026-05-07 16:05 | 33.37023 | -7.58244 | 646 ft | 3 kts | 164° |
| 2026-05-07 16:05 | 33.37014 | -7.58241 | 646 ft | 1 kts | 163° |
| 2026-05-07 16:07 | 33.37008 | -7.58239 | 646 ft | 2 kts | 163° |
| 2026-05-07 16:07 | 33.36985 | -7.58231 | 645 ft | 5 kts | 163° |
| 2026-05-07 16:08 | 33.36948 | -7.58242 | 644 ft | 8 kts | 243° |
| 2026-05-07 16:08 | 33.36929 | -7.58321 | 644 ft | 10 kts | 254° |
| 2026-05-07 16:08 | 33.36908 | -7.58405 | 644 ft | 11 kts | 253° |
| 2026-05-07 16:08 | 33.36859 | -7.58463 | 644 ft | 10 kts | 178° |
| 2026-05-07 16:09 | 33.36782 | -7.58440 | 644 ft | 11 kts | 164° |
| 2026-05-07 16:09 | 33.36704 | -7.58414 | 644 ft | 11 kts | 164° |
| 2026-05-07 16:09 | 33.36628 | -7.58388 | 645 ft | 11 kts | 163° |
| 2026-05-07 16:09 | 33.36552 | -7.58362 | 646 ft | 11 kts | 164° |
| 2026-05-07 16:10 | 33.36479 | -7.58337 | 647 ft | 10 kts | 163° |
| 2026-05-07 16:10 | 33.36409 | -7.58313 | 649 ft | 10 kts | 164° |
| 2026-05-07 16:10 | 33.36342 | -7.58290 | 650 ft | 9 kts | 163° |
| 2026-05-07 16:10 | 33.36275 | -7.58268 | 650 ft | 10 kts | 163° |
| 2026-05-07 16:11 | 33.36204 | -7.58243 | 650 ft | 11 kts | 163° |
| 2026-05-07 16:11 | 33.36127 | -7.58217 | 651 ft | 11 kts | 163° |
| 2026-05-07 16:11 | 33.36056 | -7.58192 | 652 ft | 10 kts | 163° |
| 2026-05-07 16:11 | 33.35988 | -7.58168 | 653 ft | 10 kts | 163° |
| 2026-05-07 16:12 | 33.35915 | -7.58143 | 653 ft | 11 kts | 163° |
| 2026-05-07 16:12 | 33.35831 | -7.58115 | 653 ft | 13 kts | 164° |
| 2026-05-07 16:12 | 33.35737 | -7.58083 | 654 ft | 14 kts | 164° |
| 2026-05-07 16:12 | 33.35635 | -7.58048 | 654 ft | 15 kts | 163° |
| 2026-05-07 16:13 | 33.35536 | -7.58013 | 656 ft | 14 kts | 164° |
| 2026-05-07 16:13 | 33.35443 | -7.57982 | 657 ft | 13 kts | 164° |
| 2026-05-07 16:13 | 33.35351 | -7.57951 | 658 ft | 13 kts | 164° |
| 2026-05-07 16:13 | 33.35268 | -7.57977 | 658 ft | 12 kts | 230° |
| 2026-05-07 16:14 | 33.35236 | -7.58072 | 658 ft | 12 kts | 254° |
| 2026-05-07 16:14 | 33.35214 | -7.58172 | 658 ft | 12 kts | 255° |
| 2026-05-07 16:14 | 33.35232 | -7.58262 | 657 ft | 12 kts | 324° |
| 2026-05-07 16:14 | 33.35314 | -7.58299 | 657 ft | 15 kts | 346° |
| 2026-05-07 16:15 | 33.35575 | -7.58387 | 655 ft | 73 kts | 343° |
| 2026-05-07 16:15 | 33.36298 | -7.58631 | 650 ft | 138 kts | 343° |
| 2026-05-07 16:15 | 33.37353 | -7.58984 | 961 ft | 162 kts | 347° |
| 2026-05-07 16:15 | 33.38405 | -7.59319 | 1669 ft | 159 kts | 348° |
| 2026-05-07 16:16 | 33.39455 | -7.59649 | 2363 ft | 157 kts | 346° |
| 2026-05-07 16:16 | 33.40557 | -7.60008 | 2745 ft | 172 kts | 346° |
| 2026-05-07 16:16 | 33.41742 | -7.60332 | 3219 ft | 181 kts | 347° |
| 2026-05-07 16:16 | 33.42852 | -7.60999 | 3769 ft | 184 kts | 308° |
| 2026-05-07 16:17 | 33.43435 | -7.62327 | 4410 ft | 181 kts | 297° |
| 2026-05-07 16:17 | 33.44023 | -7.63690 | 4842 ft | 191 kts | 299° |
| 2026-05-07 16:17 | 33.44764 | -7.65069 | 5152 ft | 207 kts | 304° |
| 2026-05-07 16:17 | 33.45643 | -7.66555 | 5472 ft | 224 kts | 304° |
| 2026-05-07 16:18 | 33.46562 | -7.68127 | 5740 ft | 244 kts | 303° |
| 2026-05-07 16:18 | 33.47557 | -7.69874 | 6205 ft | 257 kts | 302° |
| 2026-05-07 16:18 | 33.48622 | -7.71597 | 6848 ft | 263 kts | 314° |
| 2026-05-07 16:18 | 33.50270 | -7.72675 | 7208 ft | 283 kts | 348° |
| 2026-05-07 16:19 | 33.52240 | -7.72693 | 7810 ft | 290 kts | 5° |
| 2026-05-07 16:19 | 33.54255 | -7.72456 | 8501 ft | 293 kts | 3° |
| 2026-05-07 16:19 | 33.56307 | -7.72311 | 9192 ft | 297 kts | 0° |
| 2026-05-07 16:19 | 33.58386 | -7.72267 | 9850 ft | 301 kts | 358° |
| 2026-05-07 16:20 | 33.60496 | -7.72291 | 10392 ft | 309 kts | 357° |
| 2026-05-07 16:20 | 33.62701 | -7.72344 | 10696 ft | 325 kts | 356° |
| 2026-05-07 16:20 | 33.65028 | -7.72409 | 10990 ft | 341 kts | 356° |
| 2026-05-07 16:20 | 33.67426 | -7.72475 | 11486 ft | 349 kts | 356° |
| 2026-05-07 16:21 | 33.69860 | -7.72538 | 12107 ft | 353 kts | 356° |
| 2026-05-07 16:21 | 33.72328 | -7.72602 | 12724 ft | 356 kts | 356° |
| 2026-05-07 16:21 | 33.74810 | -7.72667 | 13282 ft | 360 kts | 356° |
| 2026-05-07 16:21 | 33.77319 | -7.72733 | 13838 ft | 363 kts | 356° |
| 2026-05-07 16:22 | 33.79868 | -7.72799 | 14457 ft | 367 kts | 355° |
| 2026-05-07 16:22 | 33.82435 | -7.72865 | 15022 ft | 370 kts | 355° |
| 2026-05-07 16:22 | 33.84990 | -7.72932 | 15531 ft | 374 kts | 355° |
| 2026-05-07 16:22 | 33.87634 | -7.73001 | 16087 ft | 378 kts | 354° |
| 2026-05-07 16:23 | 33.90271 | -7.73071 | 16617 ft | 381 kts | 354° |
| 2026-05-07 16:23 | 33.92931 | -7.73144 | 17144 ft | 384 kts | 354° |
| 2026-05-07 16:23 | 33.95582 | -7.73235 | 17626 ft | 387 kts | 352° |
| 2026-05-07 16:23 | 33.98309 | -7.73419 | 18117 ft | 390 kts | 351° |
| 2026-05-07 16:24 | 34.01000 | -7.73631 | 18606 ft | 393 kts | 351° |
| 2026-05-07 16:24 | 34.03737 | -7.73846 | 19122 ft | 395 kts | 351° |
| 2026-05-07 16:24 | 34.06483 | -7.74055 | 19633 ft | 397 kts | 351° |
| 2026-05-07 16:24 | 34.09249 | -7.74261 | 20113 ft | 399 kts | 351° |
| 2026-05-07 16:25 | 34.12042 | -7.74467 | 20581 ft | 402 kts | 351° |
| 2026-05-07 16:25 | 34.14835 | -7.74670 | 21055 ft | 404 kts | 351° |
| 2026-05-07 16:25 | 34.17663 | -7.74874 | 21494 ft | 407 kts | 351° |
| 2026-05-07 16:25 | 34.20513 | -7.75082 | 21921 ft | 410 kts | 351° |
| 2026-05-07 16:26 | 34.23344 | -7.75290 | 22352 ft | 413 kts | 351° |
| 2026-05-07 16:26 | 34.26248 | -7.75503 | 22804 ft | 415 kts | 351° |
| 2026-05-07 16:26 | 34.29118 | -7.75715 | 23210 ft | 417 kts | 350° |
| 2026-05-07 16:26 | 34.31077 | -7.75860 | 23503 ft | 418 kts | 351° |
| 2026-05-07 16:27 | 34.34959 | -7.76146 | 24066 ft | 421 kts | 350° |
| 2026-05-07 16:27 | 34.37871 | -7.76362 | 24469 ft | 423 kts | 350° |
| 2026-05-07 16:27 | 34.40823 | -7.76580 | 24889 ft | 425 kts | 350° |
| 2026-05-07 16:27 | 34.43755 | -7.76798 | 25275 ft | 427 kts | 350° |
| 2026-05-07 16:28 | 34.46754 | -7.77020 | 25641 ft | 429 kts | 350° |
| 2026-05-07 16:28 | 34.49711 | -7.77240 | 26007 ft | 431 kts | 350° |
| 2026-05-07 16:28 | 34.52715 | -7.77461 | 26400 ft | 433 kts | 350° |
| 2026-05-07 16:28 | 34.55747 | -7.77684 | 26774 ft | 434 kts | 350° |
| 2026-05-07 16:29 | 34.58784 | -7.77911 | 27132 ft | 436 kts | 350° |
| 2026-05-07 16:29 | 34.61820 | -7.78137 | 27477 ft | 438 kts | 350° |
| 2026-05-07 16:29 | 34.64867 | -7.78364 | 27818 ft | 440 kts | 350° |
| 2026-05-07 16:29 | 34.67931 | -7.78593 | 28148 ft | 441 kts | 350° |
| 2026-05-07 16:30 | 34.71001 | -7.78821 | 28464 ft | 443 kts | 350° |
| 2026-05-07 16:30 | 34.74081 | -7.79049 | 28786 ft | 445 kts | 349° |
| 2026-05-07 16:30 | 34.77190 | -7.79282 | 29083 ft | 447 kts | 350° |
| 2026-05-07 16:30 | 34.80302 | -7.79514 | 29388 ft | 448 kts | 349° |
| 2026-05-07 16:31 | 34.83398 | -7.79746 | 29679 ft | 450 kts | 349° |
| 2026-05-07 16:31 | 34.86543 | -7.79981 | 29961 ft | 452 kts | 349° |
| 2026-05-07 16:31 | 34.89698 | -7.80217 | 30269 ft | 453 kts | 349° |
| 2026-05-07 16:31 | 34.92823 | -7.80452 | 30565 ft | 454 kts | 350° |
| 2026-05-07 16:32 | 34.95981 | -7.80689 | 30941 ft | 453 kts | 350° |
| 2026-05-07 16:32 | 34.99117 | -7.80922 | 31346 ft | 452 kts | 349° |
| 2026-05-07 16:32 | 35.02258 | -7.81155 | 31741 ft | 450 kts | 349° |
| 2026-05-07 16:32 | 35.05369 | -7.81387 | 32093 ft | 449 kts | 349° |
| 2026-05-07 16:33 | 35.08473 | -7.81621 | 32450 ft | 448 kts | 349° |
| 2026-05-07 16:33 | 35.11571 | -7.81854 | 32840 ft | 446 kts | 349° |
| 2026-05-07 16:33 | 35.14698 | -7.82089 | 33163 ft | 445 kts | 349° |
| 2026-05-07 16:33 | 35.17748 | -7.82319 | 33473 ft | 445 kts | 349° |
| 2026-05-07 16:34 | 35.20864 | -7.82555 | 33804 ft | 444 kts | 349° |
| 2026-05-07 16:34 | 35.23933 | -7.82786 | 34123 ft | 443 kts | 349° |
| 2026-05-07 16:34 | 35.27008 | -7.83018 | 34435 ft | 442 kts | 349° |
| 2026-05-07 16:34 | 35.30059 | -7.83251 | 34661 ft | 443 kts | 349° |
| 2026-05-07 16:35 | 35.33171 | -7.83487 | 34877 ft | 445 kts | 349° |
| 2026-05-07 16:35 | 35.36272 | -7.83724 | 35087 ft | 446 kts | 349° |
| 2026-05-07 16:35 | 35.39368 | -7.83958 | 35336 ft | 446 kts | 348° |
| 2026-05-07 16:35 | 35.42465 | -7.84192 | 35584 ft | 446 kts | 349° |
| 2026-05-07 16:36 | 35.45546 | -7.84425 | 35788 ft | 446 kts | 348° |
| 2026-05-07 16:36 | 35.48642 | -7.84661 | 35932 ft | 448 kts | 348° |
| 2026-05-07 16:36 | 35.51761 | -7.84899 | 35929 ft | 448 kts | 348° |
| 2026-05-07 16:37 | 35.57980 | -7.85372 | 35934 ft | 449 kts | 348° |
| 2026-05-07 16:37 | 35.64221 | -7.85846 | 35935 ft | 448 kts | 349° |
| 2026-05-07 16:38 | 35.70477 | -7.86324 | 35934 ft | 449 kts | 348° |
| 2026-05-07 16:38 | 35.76618 | -7.87225 | 35933 ft | 437 kts | 338° |
| 2026-05-07 16:39 | 35.82392 | -7.89341 | 35934 ft | 435 kts | 335° |
| 2026-05-07 16:39 | 35.88220 | -7.91546 | 35934 ft | 437 kts | 335° |
| 2026-05-07 16:40 | 35.94043 | -7.93697 | 35934 ft | 437 kts | 335° |
| 2026-05-07 16:40 | 35.99611 | -7.96371 | 35937 ft | 429 kts | 327° |
| 2026-05-07 16:41 | 36.05041 | -7.99490 | 35934 ft | 429 kts | 327° |
| 2026-05-07 16:41 | 36.10467 | -8.02542 | 35932 ft | 430 kts | 328° |
| 2026-05-07 16:42 | 36.15955 | -8.05588 | 35932 ft | 430 kts | 328° |
| 2026-05-07 16:42 | 36.21395 | -8.08593 | 35930 ft | 431 kts | 328° |
| 2026-05-07 16:43 | 36.26870 | -8.11618 | 35920 ft | 430 kts | 328° |
| 2026-05-07 16:43 | 36.32314 | -8.14629 | 35917 ft | 430 kts | 328° |
| 2026-05-07 16:44 | 36.37804 | -8.17665 | 35917 ft | 431 kts | 328° |
| 2026-05-07 16:44 | 36.43256 | -8.20689 | 35916 ft | 430 kts | 328° |
| 2026-05-07 16:45 | 36.48701 | -8.23713 | 35916 ft | 430 kts | 328° |
| 2026-05-07 16:45 | 36.54178 | -8.26761 | 35917 ft | 431 kts | 328° |
| 2026-05-07 16:46 | 36.59655 | -8.29812 | 35919 ft | 432 kts | 328° |
| 2026-05-07 16:46 | 36.65152 | -8.32878 | 35919 ft | 432 kts | 328° |
| 2026-05-07 16:47 | 36.70629 | -8.35939 | 35914 ft | 432 kts | 328° |
| 2026-05-07 16:47 | 36.76124 | -8.39018 | 35716 ft | 433 kts | 328° |
| 2026-05-07 16:47 | 36.78831 | -8.40536 | 35416 ft | 432 kts | 328° |
| 2026-05-07 16:48 | 36.81576 | -8.42074 | 35111 ft | 429 kts | 328° |
| 2026-05-07 16:48 | 36.84310 | -8.43608 | 34807 ft | 427 kts | 328° |
| 2026-05-07 16:48 | 36.86991 | -8.45108 | 34498 ft | 427 kts | 328° |
| 2026-05-07 16:48 | 36.89712 | -8.46631 | 34182 ft | 427 kts | 328° |
| 2026-05-07 16:49 | 36.92429 | -8.48155 | 33885 ft | 429 kts | 328° |
| 2026-05-07 16:49 | 36.95118 | -8.49663 | 33604 ft | 429 kts | 328° |
| 2026-05-07 16:49 | 36.97853 | -8.51199 | 33325 ft | 430 kts | 328° |
| 2026-05-07 16:49 | 37.00591 | -8.52740 | 32924 ft | 432 kts | 328° |
| 2026-05-07 16:50 | 37.03331 | -8.54281 | 32387 ft | 434 kts | 329° |
| 2026-05-07 16:50 | 37.06084 | -8.55834 | 31754 ft | 435 kts | 329° |
| 2026-05-07 16:50 | 37.08836 | -8.57384 | 31066 ft | 436 kts | 329° |
| 2026-05-07 16:50 | 37.11623 | -8.58957 | 30331 ft | 436 kts | 330° |
| 2026-05-07 16:51 | 37.14381 | -8.60511 | 29747 ft | 433 kts | 330° |
| 2026-05-07 16:51 | 37.17103 | -8.62044 | 29292 ft | 427 kts | 330° |
| 2026-05-07 16:51 | 37.19790 | -8.63557 | 28823 ft | 422 kts | 330° |
| 2026-05-07 16:51 | 37.22433 | -8.65051 | 28359 ft | 417 kts | 330° |
| 2026-05-07 16:52 | 37.25068 | -8.66541 | 27890 ft | 413 kts | 330° |
| 2026-05-07 16:52 | 37.27676 | -8.68018 | 27420 ft | 408 kts | 330° |
| 2026-05-07 16:52 | 37.30259 | -8.69481 | 26954 ft | 404 kts | 330° |
| 2026-05-07 16:52 | 37.32805 | -8.70925 | 26498 ft | 400 kts | 330° |
| 2026-05-07 16:53 | 37.35332 | -8.72360 | 26040 ft | 397 kts | 330° |
| 2026-05-07 16:53 | 37.37833 | -8.73783 | 25588 ft | 393 kts | 330° |
| 2026-05-07 16:53 | 37.40309 | -8.75191 | 25139 ft | 390 kts | 330° |
| 2026-05-07 16:53 | 37.42764 | -8.76588 | 24687 ft | 387 kts | 330° |
| 2026-05-07 16:54 | 37.45185 | -8.77966 | 24248 ft | 384 kts | 330° |
| 2026-05-07 16:54 | 37.47636 | -8.79363 | 23803 ft | 381 kts | 330° |
| 2026-05-07 16:54 | 37.50026 | -8.80726 | 23363 ft | 379 kts | 330° |
| 2026-05-07 16:54 | 37.52432 | -8.82101 | 22930 ft | 377 kts | 330° |
| 2026-05-07 16:55 | 37.54813 | -8.83462 | 22499 ft | 376 kts | 330° |
| 2026-05-07 16:55 | 37.57184 | -8.84816 | 22056 ft | 375 kts | 330° |
| 2026-05-07 16:55 | 37.59574 | -8.86104 | 21613 ft | 375 kts | 334° |
| 2026-05-07 16:55 | 37.62010 | -8.87212 | 21205 ft | 374 kts | 337° |
| 2026-05-07 16:56 | 37.64507 | -8.88240 | 20772 ft | 374 kts | 338° |
| 2026-05-07 16:56 | 37.66958 | -8.89230 | 20333 ft | 373 kts | 338° |
| 2026-05-07 16:56 | 37.71887 | -8.91223 | 19432 ft | 371 kts | 338° |
| 2026-05-07 16:57 | 37.74338 | -8.92219 | 18973 ft | 371 kts | 338° |
| 2026-05-07 16:57 | 37.76811 | -8.93223 | 18517 ft | 370 kts | 339° |
| 2026-05-07 16:57 | 37.79233 | -8.94209 | 18057 ft | 369 kts | 339° |
| 2026-05-07 16:57 | 37.81689 | -8.95211 | 17595 ft | 368 kts | 339° |
| 2026-05-07 16:58 | 37.84120 | -8.96205 | 17140 ft | 367 kts | 339° |
| 2026-05-07 16:58 | 37.86546 | -8.97189 | 16679 ft | 366 kts | 341° |
| 2026-05-07 16:58 | 37.89011 | -8.97978 | 16127 ft | 368 kts | 346° |
| 2026-05-07 16:58 | 37.91525 | -8.98657 | 15625 ft | 368 kts | 347° |
| 2026-05-07 16:59 | 37.94002 | -8.99324 | 15208 ft | 364 kts | 346° |
| 2026-05-07 16:59 | 37.96470 | -9.00012 | 14787 ft | 361 kts | 346° |
| 2026-05-07 16:59 | 37.98919 | -9.00712 | 14348 ft | 359 kts | 346° |
| 2026-05-07 16:59 | 38.01350 | -9.01409 | 13920 ft | 355 kts | 347° |
| 2026-05-07 17:00 | 38.03744 | -9.02072 | 13487 ft | 353 kts | 347° |
| 2026-05-07 17:00 | 38.06134 | -9.02729 | 13038 ft | 350 kts | 347° |
| 2026-05-07 17:00 | 38.08496 | -9.03379 | 12624 ft | 347 kts | 347° |
| 2026-05-07 17:00 | 38.10856 | -9.04030 | 12311 ft | 339 kts | 347° |
| 2026-05-07 17:01 | 38.13120 | -9.04658 | 12020 ft | 332 kts | 347° |
| 2026-05-07 17:01 | 38.15367 | -9.05282 | 11709 ft | 326 kts | 347° |
| 2026-05-07 17:01 | 38.17562 | -9.05891 | 11346 ft | 320 kts | 347° |
| 2026-05-07 17:01 | 38.19709 | -9.06488 | 10884 ft | 313 kts | 347° |
| 2026-05-07 17:02 | 38.21800 | -9.07069 | 10372 ft | 304 kts | 347° |
| 2026-05-07 17:02 | 38.23859 | -9.07642 | 9724 ft | 300 kts | 347° |
| 2026-05-07 17:02 | 38.25880 | -9.08204 | 9043 ft | 298 kts | 347° |
| 2026-05-07 17:02 | 38.27880 | -9.08760 | 8380 ft | 295 kts | 347° |
| 2026-05-07 17:03 | 38.29870 | -9.09313 | 7741 ft | 291 kts | 347° |
| 2026-05-07 17:03 | 38.31828 | -9.09858 | 7241 ft | 282 kts | 346° |
| 2026-05-07 17:03 | 38.33548 | -9.10806 | 6901 ft | 267 kts | 316° |
| 2026-05-07 17:03 | 38.34479 | -9.12692 | 6886 ft | 247 kts | 278° |
| 2026-05-07 17:04 | 38.34357 | -9.14819 | 6915 ft | 239 kts | 250° |
| 2026-05-07 17:04 | 38.33872 | -9.16835 | 6913 ft | 240 kts | 251° |
| 2026-05-07 17:04 | 38.33458 | -9.18889 | 6906 ft | 241 kts | 253° |
| 2026-05-07 17:04 | 38.33094 | -9.20967 | 6906 ft | 241 kts | 255° |
| 2026-05-07 17:05 | 38.32800 | -9.23079 | 6899 ft | 242 kts | 264° |
| 2026-05-07 17:05 | 38.33116 | -9.25188 | 6873 ft | 248 kts | 297° |
| 2026-05-07 17:05 | 38.34304 | -9.26784 | 6896 ft | 253 kts | 329° |
| 2026-05-07 17:05 | 38.35989 | -9.27377 | 6899 ft | 254 kts | 2° |
| 2026-05-07 17:06 | 38.37723 | -9.27123 | 6924 ft | 251 kts | 8° |
| 2026-05-07 17:06 | 38.39462 | -9.26814 | 6581 ft | 252 kts | 8° |
| 2026-05-07 17:06 | 38.41237 | -9.26510 | 5932 ft | 264 kts | 8° |
| 2026-05-07 17:06 | 38.43030 | -9.26225 | 5656 ft | 258 kts | 7° |
| 2026-05-07 17:07 | 38.44788 | -9.25951 | 5470 ft | 250 kts | 7° |
| 2026-05-07 17:07 | 38.46512 | -9.25683 | 5207 ft | 245 kts | 7° |
| 2026-05-07 17:07 | 38.48197 | -9.25420 | 4882 ft | 244 kts | 6° |
| 2026-05-07 17:07 | 38.49868 | -9.25158 | 4564 ft | 242 kts | 6° |
| 2026-05-07 17:08 | 38.51539 | -9.24895 | 4255 ft | 240 kts | 6° |
| 2026-05-07 17:08 | 38.53183 | -9.24635 | 4025 ft | 236 kts | 6° |
| 2026-05-07 17:08 | 38.54810 | -9.24381 | 4009 ft | 236 kts | 6° |
| 2026-05-07 17:08 | 38.56416 | -9.24150 | 3995 ft | 226 kts | 3° |
| 2026-05-07 17:09 | 38.57891 | -9.23967 | 4066 ft | 203 kts | 7° |
| 2026-05-07 17:09 | 38.59246 | -9.23560 | 3897 ft | 196 kts | 15° |
| 2026-05-07 17:09 | 38.60548 | -9.22980 | 3682 ft | 196 kts | 19° |
| 2026-05-07 17:09 | 38.61800 | -9.22345 | 3426 ft | 194 kts | 20° |
| 2026-05-07 17:10 | 38.63054 | -9.21678 | 3170 ft | 193 kts | 21° |
| 2026-05-07 17:10 | 38.64278 | -9.21018 | 2919 ft | 191 kts | 21° |
| 2026-05-07 17:10 | 38.65492 | -9.20363 | 2669 ft | 191 kts | 20° |
| 2026-05-07 17:10 | 38.66680 | -9.19721 | 2409 ft | 178 kts | 19° |
| 2026-05-07 17:11 | 38.67780 | -9.19129 | 2194 ft | 162 kts | 19° |
| 2026-05-07 17:11 | 38.68765 | -9.18599 | 1968 ft | 148 kts | 19° |
| 2026-05-07 17:11 | 38.69705 | -9.18090 | 1768 ft | 147 kts | 19° |
| 2026-05-07 17:11 | 38.70636 | -9.17565 | 1606 ft | 144 kts | 19° |
| 2026-05-07 17:12 | 38.71572 | -9.17048 | 1434 ft | 148 kts | 18° |
| 2026-05-07 17:12 | 38.72547 | -9.16545 | 1314 ft | 154 kts | 18° |
| 2026-05-07 17:12 | 38.73547 | -9.16010 | 1114 ft | 156 kts | 18° |
| 2026-05-07 17:12 | 38.74545 | -9.15481 | 885 ft | 152 kts | 18° |
| 2026-05-07 17:13 | 38.75502 | -9.14979 | 641 ft | 144 kts | 18° |
| 2026-05-07 17:13 | 38.76415 | -9.14502 | 426 ft | 139 kts | 18° |
| 2026-05-07 17:13 | 38.77275 | -9.14043 | 351 ft | 123 kts | 20° |
| 2026-05-07 17:13 | 38.77828 | -9.13755 | 360 ft | 64 kts | 21° |
| 2026-05-07 17:14 | 38.78199 | -9.13548 | 360 ft | 48 kts | 31° |
| 2026-05-07 17:14 | 38.78371 | -9.13345 | 353 ft | 19 kts | 65° |
| 2026-05-07 17:14 | 38.78323 | -9.13266 | 347 ft | 11 kts | 190° |
| 2026-05-07 17:14 | 38.78244 | -9.13305 | 346 ft | 11 kts | 202° |
| 2026-05-07 17:15 | 38.78198 | -9.13329 | 346 ft | 2 kts | 202° |
| 2026-05-07 17:15 | 38.78193 | -9.13331 | 346 ft | 0 kts | 202° |
| 2026-05-07 17:16 | 38.78191 | -9.13332 | 346 ft | 1 kts | 202° |
| 2026-05-07 17:16 | 38.78173 | -9.13342 | 346 ft | 4 kts | 202° |
| 2026-05-07 17:16 | 38.78136 | -9.13362 | 345 ft | 7 kts | 203° |
| 2026-05-07 17:16 | 38.78077 | -9.13394 | 345 ft | 10 kts | 202° |
| 2026-05-07 17:17 | 38.77992 | -9.13407 | 343 ft | 14 kts | 170° |
| 2026-05-07 17:17 | 38.77878 | -9.13377 | 339 ft | 17 kts | 168° |
| 2026-05-07 17:17 | 38.77772 | -9.13350 | 335 ft | 14 kts | 169° |
| 2026-05-07 17:17 | 38.77665 | -9.13321 | 331 ft | 14 kts | 171° |
| 2026-05-07 17:18 | 38.77572 | -9.13317 | 329 ft | 13 kts | 171° |
| 2026-05-07 17:18 | 38.77528 | -9.13305 | 328 ft | 0 kts | 168° |
| 2026-05-07 17:18 | 38.77509 | -9.13300 | 328 ft | 4 kts | 169° |
| 2026-05-07 17:19 | 38.77473 | -9.13291 | 327 ft | 5 kts | 169° |
| 2026-05-07 17:19 | 38.77433 | -9.13281 | 328 ft | 6 kts | 168° |
| 2026-05-07 17:19 | 38.77408 | -9.13249 | 327 ft | 7 kts | 75° |
| 2026-05-07 17:19 | 38.77420 | -9.13190 | 325 ft | 5 kts | 78° |
| 2026-05-07 17:20 | 38.77425 | -9.13157 | 323 ft | 2 kts | 78° |
| 2026-05-07 17:20 | 38.77428 | -9.13143 | 323 ft | 0 kts | 78° |